Terminal Aerodrome Forecast
Issued by NWS Omaha/Valley, NE

Current Version | Previous Version | Text Only | Print | Product List | Glossary On
Versions: 1 2 3 4 5 6 7 8 9 10 11 12 13 14 15 16 17
000
FTUS43 KOAX 280520
TAFOFK
TAF
KOFK 280520Z 2806/2906 17005KT P6SM SCT250
      TEMPO 2810/2813 5SM BR SCT009
     FM281600 18010KT P6SM SCT030
     FM281900 17011KT P6SM SCT040=

USA.gov is the U.S. government's official web portal to all federal, state and local government web resources and services.